createdAt,value
2023-05-06T00:02:00.151Z,6.77
2023-05-06T00:04:30.702Z,6.77
2023-05-06T00:07:00.576Z,6.67
2023-05-06T00:09:30.889Z,5.93
2023-05-06T00:12:01.222Z,6.77
2023-05-06T00:14:31.661Z,5.93
2023-05-06T00:17:01.998Z,6.57
2023-05-06T00:19:32.998Z,6.40
2023-05-06T00:22:03.175Z,5.97
2023-05-06T00:24:33.231Z,5.83
2023-05-06T00:27:03.374Z,6.07
2023-05-06T00:29:33.885Z,6.70
2023-05-06T00:32:04.467Z,5.87
2023-05-06T00:34:34.732Z,6.03
2023-05-06T00:37:04.661Z,6.47
2023-05-06T00:39:36.222Z,6.17
2023-05-06T00:42:07.136Z,6.03
2023-05-06T00:44:37.880Z,6.30
2023-05-06T00:47:08.785Z,5.90
2023-05-06T00:49:39.954Z,5.80
2023-05-06T00:52:10.476Z,5.53
2023-05-06T00:54:41.004Z,5.43
2023-05-06T00:57:12.327Z,6.20
2023-05-06T00:59:44.075Z,5.13
2023-05-06T01:02:13.596Z,5.30
2023-05-06T01:04:43.741Z,5.20
2023-05-06T01:07:24.710Z,5.27
2023-05-06T01:10:01.537Z,4.83
2023-05-06T01:12:38.180Z,5.43
2023-05-06T01:15:15.907Z,5.53
2023-05-06T01:17:49.453Z,5.10
2023-05-06T01:20:21.847Z,5.10
2023-05-06T01:22:52.664Z,4.57
2023-05-06T01:25:23.742Z,5.00
2023-05-06T01:27:53.913Z,4.87
2023-05-06T01:30:29.547Z,5.23
2023-05-06T01:33:05.417Z,5.90
2023-05-06T01:35:54.378Z,4.67
2023-05-06T01:38:34.939Z,5.40
2023-05-06T01:41:06.121Z,4.90
2023-05-06T01:43:41.734Z,5.33
2023-05-06T01:46:19.078Z,4.73
2023-05-06T01:48:53.593Z,5.00
2023-05-06T01:51:23.850Z,5.00
2023-05-06T01:53:54.904Z,4.97
2023-05-06T01:58:59.299Z,5.13
2023-05-06T02:01:30.098Z,4.97
2023-05-06T02:04:01.023Z,5.83
2023-05-06T02:06:32.274Z,5.28
2023-05-06T02:09:02.764Z,5.17
2023-05-06T02:11:33.498Z,5.17
2023-05-06T02:14:07.114Z,5.87
2023-05-06T02:16:38.468Z,5.07
2023-05-06T02:19:08.880Z,5.20
2023-05-06T02:21:39.298Z,5.13
2023-05-06T02:24:10.046Z,5.20
2023-05-06T02:26:40.361Z,5.63
2023-05-06T02:29:10.676Z,5.07
2023-05-06T02:31:41.235Z,5.20
2023-05-06T02:34:11.329Z,5.40
2023-05-06T02:36:42.066Z,5.10
2023-05-06T02:39:12.518Z,5.27
2023-05-06T02:41:42.294Z,4.93
2023-05-06T02:44:13.221Z,5.30
2023-05-06T02:46:43.559Z,5.37
2023-05-06T02:51:44.607Z,5.00
2023-05-06T02:54:15.339Z,5.43
2023-05-06T02:56:46.069Z,5.50
2023-05-06T02:59:16.537Z,5.07
2023-05-06T03:01:46.715Z,4.60
2023-05-06T03:04:16.714Z,4.67
2023-05-06T03:06:47.150Z,4.90
2023-05-06T03:09:18.708Z,5.00
2023-05-06T03:11:49.235Z,5.08
2023-05-06T03:14:20.158Z,4.93
2023-05-06T03:16:50.792Z,5.00
2023-05-06T03:19:22.054Z,5.37
2023-05-06T03:21:52.190Z,5.07
2023-05-06T03:24:23.544Z,5.17
2023-05-06T03:26:54.249Z,4.85
2023-05-06T03:29:24.979Z,5.30
2023-05-06T03:31:57.645Z,5.20
2023-05-06T03:34:28.914Z,5.17
2023-05-06T03:36:59.840Z,4.93
2023-05-06T03:39:30.982Z,4.60
2023-05-06T03:42:01.916Z,5.40
2023-05-06T03:44:32.442Z,4.67
2023-05-06T03:47:02.974Z,5.47
2023-05-06T03:49:33.913Z,5.33
2023-05-06T03:52:05.439Z,5.20
2023-05-06T03:54:36.150Z,5.33
2023-05-06T03:57:06.934Z,5.03
2023-05-06T03:59:37.861Z,5.57
2023-05-06T04:02:08.626Z,5.50
2023-05-06T04:04:39.956Z,5.45
2023-05-06T04:07:09.859Z,5.47
2023-05-06T04:09:39.793Z,5.77
2023-05-06T04:12:11.323Z,6.10
2023-05-06T04:14:42.052Z,5.80
2023-05-06T04:17:12.837Z,5.77
2023-05-06T04:19:43.730Z,6.20
2023-05-06T04:22:14.200Z,5.40
2023-05-06T04:24:45.804Z,5.00
2023-05-06T04:27:17.146Z,5.83
2023-05-06T04:29:48.085Z,5.27
2023-05-06T04:32:20.601Z,5.45
2023-05-06T04:34:51.186Z,5.15
2023-05-06T04:37:21.859Z,5.77
2023-05-06T04:39:57.567Z,5.90
2023-05-06T04:42:29.124Z,6.90
2023-05-06T04:45:11.643Z,5.97
2023-05-06T04:47:42.017Z,5.97
2023-05-06T04:50:15.034Z,5.53
2023-05-06T04:52:45.368Z,5.80
2023-05-06T04:55:16.920Z,6.00
2023-05-06T04:57:50.927Z,6.23
2023-05-06T05:00:25.901Z,6.40
2023-05-06T05:02:56.511Z,5.90
2023-05-06T05:05:27.998Z,6.47
2023-05-06T05:07:58.774Z,6.40
2023-05-06T05:10:29.045Z,6.13
2023-05-06T05:12:59.249Z,6.50
2023-05-06T05:15:30.161Z,6.87
2023-05-06T05:18:00.305Z,6.30
2023-05-06T05:20:30.592Z,6.07
2023-05-06T05:23:02.976Z,6.60
2023-05-06T05:25:34.514Z,5.90
2023-05-06T05:28:05.662Z,6.70
2023-05-06T05:30:37.015Z,5.85
2023-05-06T05:33:07.721Z,6.10
2023-05-06T05:35:38.258Z,5.03
2023-05-06T05:38:09.033Z,5.20
2023-05-06T05:40:40.549Z,5.33
2023-05-06T05:43:11.275Z,5.67
2023-05-06T05:45:42.540Z,5.65
2023-05-06T05:48:13.595Z,5.17
2023-05-06T05:50:44.087Z,5.43
2023-05-06T05:53:14.215Z,5.80
2023-05-06T05:55:45.139Z,5.07
2023-05-06T05:58:15.881Z,5.03
2023-05-06T06:00:46.407Z,5.10
2023-05-06T06:03:17.620Z,4.53
2023-05-06T06:05:48.896Z,4.78
2023-05-06T06:08:19.848Z,4.28
2023-05-06T06:10:50.910Z,4.60
2023-05-06T06:13:25.347Z,4.87
2023-05-06T06:15:58.423Z,4.83
2023-05-06T06:18:29.728Z,4.77
2023-05-06T06:21:00.455Z,4.23
2023-05-06T06:23:30.572Z,4.60
2023-05-06T06:26:02.126Z,4.30
2023-05-06T06:28:32.252Z,3.90
2023-05-06T06:31:02.357Z,4.30
2023-05-06T06:33:32.475Z,4.23
2023-05-06T06:36:02.354Z,4.00
2023-05-06T06:38:32.520Z,4.50
2023-05-06T06:41:02.463Z,4.60
2023-05-06T06:43:32.955Z,5.87
2023-05-06T06:46:04.976Z,4.70
2023-05-06T06:48:35.657Z,4.70
2023-05-06T06:51:06.974Z,4.70
2023-05-06T06:53:37.111Z,4.62
2023-05-06T06:56:11.828Z,4.40
2023-05-06T06:58:41.862Z,4.30
2023-05-06T07:01:13.041Z,4.17
2023-05-06T07:03:43.203Z,4.27
2023-05-06T07:06:14.060Z,4.13
2023-05-06T07:08:44.788Z,4.23
2023-05-06T07:11:15.506Z,4.23
2023-05-06T07:13:46.869Z,4.17
2023-05-06T07:16:17.051Z,4.10
2023-05-06T07:18:47.507Z,3.83
2023-05-06T07:21:17.429Z,3.67
2023-05-06T07:23:47.970Z,3.50
2023-05-06T07:26:18.479Z,4.10
2023-05-06T07:28:50.443Z,3.43
2023-05-06T07:31:20.832Z,4.10
2023-05-06T07:33:51.500Z,3.80
2023-05-06T07:36:23.261Z,3.70
2023-05-06T07:38:53.995Z,3.83
2023-05-06T07:41:24.520Z,3.83
2023-05-06T07:43:55.867Z,3.67
2023-05-06T07:48:55.078Z,3.90
2023-05-06T07:51:26.627Z,3.57
2023-05-06T07:53:57.367Z,3.87
2023-05-06T07:56:29.330Z,3.60
2023-05-06T07:58:59.650Z,3.97
2023-05-06T08:01:30.789Z,3.87
2023-05-06T08:04:01.197Z,3.47
2023-05-06T08:06:32.661Z,3.20
2023-05-06T08:09:02.579Z,3.12
2023-05-06T08:11:34.136Z,3.30
2023-05-06T08:14:05.477Z,3.97
2023-05-06T08:19:05.508Z,3.60
2023-05-06T08:21:37.477Z,3.83
2023-05-06T08:24:10.031Z,3.93
2023-05-06T08:26:40.174Z,3.50
2023-05-06T08:29:10.905Z,3.63
2023-05-06T08:31:41.473Z,3.30
2023-05-06T08:34:11.562Z,3.20
2023-05-06T08:36:43.387Z,3.40
2023-05-06T08:39:14.858Z,3.03
2023-05-06T08:44:23.120Z,6.10
2023-05-06T08:46:53.819Z,3.80
2023-05-06T08:49:25.570Z,3.75
2023-05-06T08:51:56.749Z,5.37
2023-05-06T08:54:29.105Z,3.70
2023-05-06T08:57:00.433Z,4.00
2023-05-06T08:59:32.297Z,3.60
2023-05-06T09:02:03.582Z,3.47
2023-05-06T09:07:04.389Z,3.57
2023-05-06T09:09:35.946Z,3.13
2023-05-06T09:12:13.089Z,3.33
2023-05-06T09:14:43.754Z,3.77
2023-05-06T09:17:23.269Z,3.60
2023-05-06T09:19:56.417Z,3.20
2023-05-06T09:22:28.179Z,3.20
2023-05-06T09:24:59.380Z,3.60
2023-05-06T09:27:32.776Z,3.87
2023-05-06T09:30:04.947Z,5.23
2023-05-06T09:32:39.068Z,5.50
2023-05-06T09:35:11.807Z,3.67
2023-05-06T09:37:42.876Z,3.30
2023-05-06T09:40:15.360Z,3.17
2023-05-06T09:42:47.356Z,3.20
2023-05-06T09:45:18.968Z,2.80
2023-05-06T09:50:21.683Z,3.20
2023-05-06T09:52:52.540Z,3.00
2023-05-06T09:55:26.089Z,3.07
2023-05-06T09:57:58.165Z,2.60
2023-05-06T10:00:31.932Z,3.30
2023-05-06T10:03:03.289Z,3.17
2023-05-06T10:05:35.849Z,2.67
2023-05-06T10:08:09.467Z,2.93
2023-05-06T10:10:43.123Z,3.03
2023-05-06T10:13:13.431Z,2.60
2023-05-06T10:15:45.643Z,2.77
2023-05-06T10:18:17.680Z,3.03
2023-05-06T10:20:49.502Z,2.50
2023-05-06T10:23:26.274Z,2.73
2023-05-06T10:26:05.941Z,2.70
2023-05-06T10:28:40.109Z,2.80
2023-05-06T10:31:13.588Z,2.40
2023-05-06T10:33:47.740Z,3.37
2023-05-06T10:36:22.047Z,3.00
2023-05-06T10:38:55.906Z,3.00
2023-05-06T10:41:27.712Z,2.57
2023-05-06T10:43:59.482Z,4.90
2023-05-06T10:46:32.462Z,2.90
2023-05-06T10:49:19.498Z,6.17
2023-05-06T10:52:12.250Z,55.90
2023-05-06T10:54:52.787Z,10.63
2023-05-06T10:57:26.333Z,78.43
2023-05-06T10:59:56.299Z,195.43
2023-05-06T11:02:31.700Z,198.50
2023-05-06T11:05:03.094Z,103.87
2023-05-06T11:10:04.777Z,37.83
2023-05-06T11:12:48.933Z,635.07
2023-05-06T11:15:26.289Z,503.97
2023-05-06T11:17:56.688Z,301.07
2023-05-06T11:20:28.328Z,253.80
2023-05-06T11:22:58.141Z,487.93
2023-05-06T11:25:42.392Z,403.00
2023-05-06T11:28:14.094Z,247.63
2023-05-06T11:30:53.593Z,201.77
2023-05-06T11:33:27.532Z,196.17
2023-05-06T11:35:57.354Z,318.47
2023-05-06T11:38:39.343Z,67.77
2023-05-06T11:41:09.672Z,24.53
2023-05-06T11:43:40.171Z,30.85
2023-05-06T11:46:09.701Z,7.23
2023-05-06T11:48:39.361Z,4.47
2023-05-06T11:51:09.968Z,3.67
2023-05-06T11:53:41.088Z,2.60
2023-05-06T11:56:12.224Z,2.50
2023-05-06T11:58:42.958Z,2.60
2023-05-06T12:01:13.896Z,2.40
2023-05-06T12:03:44.821Z,2.22
2023-05-06T12:06:15.154Z,2.20
2023-05-06T12:08:45.479Z,1.97
2023-05-06T12:11:16.212Z,2.17
2023-05-06T12:13:46.947Z,1.90
2023-05-06T12:16:17.691Z,2.52
2023-05-06T12:18:48.016Z,2.40
2023-05-06T12:21:23.823Z,2.03
2023-05-06T12:23:56.433Z,1.63
2023-05-06T12:26:27.780Z,1.93
2023-05-06T12:31:38.273Z,1.60
2023-05-06T12:34:08.987Z,1.50
2023-05-06T12:36:44.701Z,1.90
2023-05-06T12:39:17.014Z,1.70
2023-05-06T12:41:48.358Z,2.00
2023-05-06T12:47:08.250Z,1.60
2023-05-06T12:52:20.036Z,1.70
2023-05-06T12:54:51.518Z,1.57
2023-05-06T12:57:23.274Z,1.70
2023-05-06T12:59:55.849Z,1.80
2023-05-06T13:02:26.282Z,1.93
2023-05-06T13:04:56.927Z,1.55
2023-05-06T13:07:28.652Z,1.80
2023-05-06T13:09:59.186Z,1.80
2023-05-06T13:12:29.533Z,1.80
2023-05-06T13:14:59.832Z,1.70
2023-05-06T13:17:30.580Z,2.00
2023-05-06T13:20:05.242Z,1.60
2023-05-06T13:22:47.253Z,1.60
2023-05-06T13:25:24.274Z,1.67
2023-05-06T13:27:55.199Z,1.50
2023-05-06T13:30:25.481Z,1.60
2023-05-06T13:32:55.219Z,2.33
2023-05-06T13:35:25.763Z,1.50
2023-05-06T13:37:56.292Z,1.87
2023-05-06T13:40:26.764Z,2.08
2023-05-06T13:42:56.734Z,2.07
2023-05-06T13:45:28.291Z,1.70
2023-05-06T13:47:58.424Z,2.07
2023-05-06T13:50:28.695Z,1.83
2023-05-06T13:52:59.051Z,1.90
2023-05-06T13:55:29.787Z,1.90
2023-05-06T13:58:00.309Z,1.70
2023-05-06T14:00:32.418Z,1.67
2023-05-06T14:03:02.295Z,1.27
2023-05-06T14:05:33.540Z,1.83
2023-05-06T14:08:04.082Z,1.40
2023-05-06T14:10:35.005Z,1.57
2023-05-06T14:13:07.137Z,1.22
2023-05-06T14:15:37.692Z,1.40
2023-05-06T14:18:08.261Z,1.47
2023-05-06T14:20:38.756Z,1.93
2023-05-06T14:23:09.273Z,1.70
2023-05-06T14:25:40.434Z,2.23
2023-05-06T14:28:12.379Z,1.47
2023-05-06T14:30:42.668Z,1.80
2023-05-06T14:33:12.274Z,1.40
2023-05-06T14:35:43.144Z,1.80
2023-05-06T14:38:13.671Z,2.27
2023-05-06T14:40:43.597Z,2.47
2023-05-06T14:43:14.318Z,2.53
2023-05-06T14:45:44.869Z,2.70
2023-05-06T14:48:14.670Z,1.70
2023-05-06T14:50:44.894Z,1.40
2023-05-06T14:53:14.815Z,1.40
2023-05-06T14:55:45.317Z,1.00
2023-05-06T14:58:15.196Z,1.40
2023-05-06T15:00:46.588Z,1.37
2023-05-06T15:03:16.713Z,1.37
2023-05-06T15:05:47.055Z,1.40
2023-05-06T15:08:17.593Z,1.37
2023-05-06T15:10:49.476Z,1.15
2023-05-06T15:13:19.833Z,1.43
2023-05-06T15:15:50.795Z,1.30
2023-05-06T15:18:20.250Z,1.60
2023-05-06T15:20:52.044Z,1.40
2023-05-06T15:23:22.981Z,1.37
2023-05-06T15:25:53.714Z,1.30
2023-05-06T15:28:24.783Z,1.30
2023-05-06T15:30:54.988Z,1.50
2023-05-06T15:33:24.896Z,1.43
2023-05-06T15:35:55.630Z,1.33
2023-05-06T15:38:25.473Z,1.23
2023-05-06T15:40:55.861Z,1.53
2023-05-06T15:43:26.468Z,1.50
2023-05-06T15:46:06.545Z,1.40
2023-05-06T15:48:36.767Z,1.50
2023-05-06T15:51:07.384Z,1.72
2023-05-06T15:53:39.927Z,1.40
2023-05-06T15:56:18.065Z,1.60
2023-05-06T15:58:49.820Z,1.53
2023-05-06T16:01:23.869Z,1.30
2023-05-06T16:04:06.009Z,1.33
2023-05-06T16:06:36.571Z,1.60
2023-05-06T16:09:08.525Z,1.67
2023-05-06T16:11:38.575Z,1.53
2023-05-06T16:14:08.566Z,1.40
2023-05-06T16:16:38.488Z,1.50
2023-05-06T16:19:09.418Z,2.50
2023-05-06T16:21:39.899Z,2.27
2023-05-06T16:24:10.461Z,2.30
2023-05-06T16:26:40.999Z,2.10
2023-05-06T16:29:11.314Z,2.40
2023-05-06T16:31:42.203Z,2.37
2023-05-06T16:34:12.790Z,1.97
2023-05-06T16:36:43.318Z,1.47
2023-05-06T16:39:13.635Z,1.60
2023-05-06T16:41:44.374Z,1.50
2023-05-06T16:44:14.914Z,1.60
2023-05-06T16:46:45.619Z,1.80
2023-05-06T16:49:16.362Z,1.90
2023-05-06T16:51:46.659Z,2.10
2023-05-06T16:54:17.009Z,2.20
2023-05-06T16:56:52.080Z,2.07
2023-05-06T16:59:23.387Z,1.67
2023-05-06T17:01:53.231Z,2.00
2023-05-06T17:04:25.056Z,1.90
2023-05-06T17:06:55.592Z,2.00
2023-05-06T17:09:25.709Z,2.53
2023-05-06T17:11:56.181Z,2.33
2023-05-06T17:14:26.117Z,2.60
2023-05-06T17:16:56.131Z,2.53
2023-05-06T17:19:26.791Z,2.63
2023-05-06T17:21:57.170Z,3.27
2023-05-06T17:24:26.202Z,2.97
2023-05-06T17:26:56.535Z,2.43
2023-05-06T17:29:27.281Z,2.50
2023-05-06T17:31:57.994Z,2.63
2023-05-06T17:34:27.917Z,2.10
2023-05-06T17:36:57.786Z,2.20
2023-05-06T17:39:28.763Z,2.37
2023-05-06T17:41:59.088Z,2.43
2023-05-06T17:44:29.620Z,2.20
2023-05-06T17:47:00.381Z,2.20
2023-05-06T17:49:30.664Z,3.47
2023-05-06T17:52:01.575Z,7.40
2023-05-06T17:54:34.387Z,5.90
2023-05-06T17:57:04.707Z,4.40
2023-05-06T17:59:36.377Z,4.97
2023-05-06T18:02:09.715Z,3.20
2023-05-06T18:04:39.981Z,4.23
2023-05-06T18:07:10.307Z,3.20
2023-05-06T18:09:40.422Z,2.80
2023-05-06T18:12:10.540Z,2.30
2023-05-06T18:14:41.270Z,2.63
2023-05-06T18:17:12.004Z,2.50
2023-05-06T18:19:42.737Z,3.80
2023-05-06T18:22:12.868Z,4.30
2023-05-06T18:24:43.179Z,17.83
2023-05-06T18:27:13.307Z,60.03
2023-05-06T18:29:44.040Z,83.57
2023-05-06T18:32:14.394Z,118.23
2023-05-06T18:34:44.895Z,125.27
2023-05-06T18:37:15.412Z,94.20
2023-05-06T18:39:45.631Z,51.47
2023-05-06T18:42:16.056Z,36.37
2023-05-06T18:44:49.698Z,27.83
2023-05-06T18:47:20.804Z,19.90
2023-05-06T18:49:50.716Z,16.62
2023-05-06T18:52:22.066Z,12.77
2023-05-06T18:54:52.392Z,11.05
2023-05-06T18:57:23.132Z,8.93
2023-05-06T18:59:53.848Z,7.10
2023-05-06T19:02:24.805Z,6.47
2023-05-06T19:04:55.545Z,6.50
2023-05-06T19:07:26.249Z,6.47
2023-05-06T19:09:57.201Z,6.43
2023-05-06T19:12:27.726Z,6.23
2023-05-06T19:14:58.453Z,6.53
2023-05-06T19:17:29.210Z,5.23
2023-05-06T19:19:59.925Z,5.00
2023-05-06T19:22:31.063Z,4.83
2023-05-06T19:25:01.997Z,3.75
2023-05-06T19:27:32.124Z,3.73
2023-05-06T19:30:02.592Z,3.13
2023-05-06T19:32:33.529Z,3.57
2023-05-06T19:35:07.433Z,3.20
2023-05-06T19:37:38.327Z,3.47
2023-05-06T19:40:12.061Z,3.00
2023-05-06T19:42:42.455Z,2.93
2023-05-06T19:45:18.142Z,3.30
2023-05-06T19:47:50.278Z,3.20
2023-05-06T19:50:21.002Z,3.73
2023-05-06T19:52:51.532Z,4.47
2023-05-06T19:55:23.241Z,3.73
2023-05-06T19:57:56.700Z,4.00
2023-05-06T20:00:27.755Z,4.27
2023-05-06T20:02:59.992Z,4.10
2023-05-06T20:05:31.143Z,4.43
2023-05-06T20:08:01.682Z,5.73
2023-05-06T20:10:32.399Z,6.40
2023-05-06T20:13:02.521Z,6.93
2023-05-06T20:15:33.249Z,6.27
2023-05-06T20:18:03.416Z,5.57
2023-05-06T20:20:34.214Z,5.10
2023-05-06T20:23:04.622Z,3.73
2023-05-06T20:25:36.786Z,3.37
2023-05-06T20:28:07.527Z,3.60
2023-05-06T20:30:37.873Z,3.10
2023-05-06T20:33:08.265Z,3.07
2023-05-06T20:35:40.138Z,2.80
2023-05-06T20:38:11.274Z,3.00
2023-05-06T20:40:41.395Z,3.70
2023-05-06T20:43:11.920Z,3.50
2023-05-06T20:45:41.665Z,3.60
2023-05-06T20:48:12.931Z,3.53
2023-05-06T20:50:45.347Z,3.20
2023-05-06T20:53:15.865Z,3.17
2023-05-06T20:55:46.397Z,3.30
2023-05-06T20:58:16.514Z,3.70
2023-05-06T21:00:46.829Z,3.60
2023-05-06T21:03:17.000Z,3.50
2023-05-06T21:05:47.286Z,3.43
2023-05-06T21:08:18.419Z,3.40
2023-05-06T21:10:48.335Z,3.83
2023-05-06T21:13:18.268Z,4.20
2023-05-06T21:15:48.379Z,2.97
2023-05-06T21:18:19.182Z,3.40
2023-05-06T21:20:49.826Z,3.07
2023-05-06T21:23:20.358Z,3.27
2023-05-06T21:25:50.278Z,3.10
2023-05-06T21:28:19.987Z,3.27
2023-05-06T21:30:50.114Z,2.93
2023-05-06T21:33:20.834Z,3.03
2023-05-06T21:35:50.944Z,3.20
2023-05-06T21:38:21.477Z,3.10
2023-05-06T21:40:51.592Z,3.23
2023-05-06T21:43:22.529Z,2.97
2023-05-06T21:45:52.884Z,3.17
2023-05-06T21:48:22.974Z,3.00
2023-05-06T21:50:57.596Z,2.97
2023-05-06T21:53:28.336Z,3.17
2023-05-06T21:55:58.239Z,2.93
2023-05-06T21:58:27.954Z,3.03
2023-05-06T22:00:57.867Z,3.40
2023-05-06T22:03:28.903Z,3.10
2023-05-06T22:05:59.474Z,2.77
2023-05-06T22:08:29.869Z,3.23
2023-05-06T22:10:59.980Z,3.10
2023-05-06T22:13:30.502Z,2.90
2023-05-06T22:16:01.106Z,3.07
2023-05-06T22:18:31.559Z,3.37
2023-05-06T22:21:02.720Z,3.07
2023-05-06T22:23:33.246Z,3.40
2023-05-06T22:26:03.977Z,3.57
2023-05-06T22:28:34.890Z,3.00
2023-05-06T22:31:05.893Z,3.27
2023-05-06T22:33:36.168Z,2.93
2023-05-06T22:36:08.489Z,3.37
2023-05-06T22:38:38.236Z,3.00
2023-05-06T22:41:08.368Z,3.20
2023-05-06T22:43:38.272Z,3.00
2023-05-06T22:46:08.256Z,3.17
2023-05-06T22:48:38.879Z,3.10
2023-05-06T22:51:08.888Z,3.13
2023-05-06T22:53:39.769Z,3.33
2023-05-06T22:56:10.909Z,3.40
2023-05-06T22:58:41.027Z,3.62
2023-05-06T23:01:11.578Z,3.50
2023-05-06T23:03:41.706Z,3.93
2023-05-06T23:06:11.796Z,3.13
2023-05-06T23:08:42.525Z,3.73
2023-05-06T23:11:13.256Z,3.50
2023-05-06T23:13:43.792Z,3.30
2023-05-06T23:16:14.309Z,3.23
2023-05-06T23:18:44.889Z,3.30
2023-05-06T23:21:14.681Z,3.33
2023-05-06T23:23:44.873Z,3.10
2023-05-06T23:26:15.607Z,3.30
2023-05-06T23:28:45.719Z,3.50
2023-05-06T23:31:16.915Z,3.33
2023-05-06T23:33:46.742Z,3.73
2023-05-06T23:36:17.513Z,3.00
2023-05-06T23:38:47.839Z,3.50
2023-05-06T23:41:18.769Z,3.17
2023-05-06T23:43:49.299Z,3.33
2023-05-06T23:46:20.874Z,3.93
2023-05-06T23:48:50.647Z,3.00
2023-05-06T23:51:20.684Z,3.40
2023-05-06T23:53:50.800Z,3.13
2023-05-06T23:56:21.320Z,3.97
2023-05-06T23:58:52.064Z,3.40
